createdAt,value
2022-10-07T06:45:07.244Z,55.22
2022-10-07T06:47:36.344Z,44.83
2022-10-07T06:50:05.290Z,45.08
2022-10-07T06:52:33.850Z,50.72
2022-10-07T06:55:01.973Z,58.60
2022-10-07T06:57:45.336Z,58.55
2022-10-07T07:00:15.623Z,55.25
2022-10-07T07:02:45.120Z,54.60
2022-10-07T07:05:16.646Z,46.92
2022-10-07T07:07:47.344Z,48.13
2022-10-07T07:10:15.785Z,44.05
2022-10-07T07:12:48.158Z,42.63
2022-10-07T07:15:16.575Z,32.53
2022-10-07T07:17:45.245Z,45.58
2022-10-07T07:20:14.555Z,42.28
2022-10-07T07:22:43.511Z,30.67
2022-10-07T07:25:12.210Z,34.47
2022-10-07T07:27:41.288Z,29.20
2022-10-07T07:30:11.821Z,31.40
2022-10-07T07:32:40.989Z,25.40
2022-10-07T07:35:09.724Z,32.03
2022-10-07T07:37:38.109Z,21.50
2022-10-07T07:40:06.741Z,23.15
2022-10-07T07:42:35.550Z,21.83
2022-10-07T07:45:04.185Z,24.40
2022-10-07T07:47:35.688Z,28.42
2022-10-07T07:50:05.726Z,23.73
2022-10-07T07:52:35.491Z,28.77
2022-10-07T07:55:05.939Z,39.37
2022-10-07T07:57:34.412Z,17.48
2022-10-07T08:00:07.638Z,26.13
2022-10-07T08:02:59.847Z,20.00
2022-10-07T08:05:27.962Z,19.98
2022-10-07T08:07:58.872Z,17.65
2022-10-07T08:10:28.109Z,18.40
2022-10-07T08:12:56.788Z,22.17
2022-10-07T08:15:25.515Z,16.77
2022-10-07T08:17:54.000Z,17.00
2022-10-07T08:20:22.460Z,17.58
2022-10-07T08:22:53.556Z,14.98
2022-10-07T08:25:25.776Z,11.20
2022-10-07T08:27:55.247Z,17.00
2022-10-07T08:30:24.146Z,12.77
2022-10-07T08:32:55.753Z,12.15
2022-10-07T08:35:25.944Z,8.20
2022-10-07T08:37:54.354Z,16.88
2022-10-07T08:40:22.569Z,15.43
2022-10-07T08:42:50.938Z,13.50
2022-10-07T08:45:27.662Z,12.10
2022-10-07T08:47:57.627Z,7.68
2022-10-07T08:50:27.773Z,13.52
2022-10-07T08:53:03.163Z,12.57
2022-10-07T08:55:43.954Z,13.05
2022-10-07T08:58:44.979Z,6.05
2022-10-07T09:01:25.068Z,9.30
2022-10-07T09:04:08.837Z,11.68
2022-10-07T09:07:09.482Z,12.35
2022-10-07T09:09:53.723Z,7.75
2022-10-07T09:12:30.879Z,9.73
2022-10-07T09:15:00.815Z,7.82
2022-10-07T09:17:43.135Z,15.15
2022-10-07T09:20:18.231Z,8.93
2022-10-07T09:22:53.450Z,8.70
2022-10-07T09:25:24.406Z,18.02
2022-10-07T09:27:54.531Z,8.43
2022-10-07T09:30:24.429Z,12.38
2022-10-07T09:32:54.925Z,11.77
2022-10-07T09:35:26.088Z,8.75
2022-10-07T09:38:03.464Z,7.20
2022-10-07T09:40:35.537Z,8.90
2022-10-07T09:43:13.092Z,11.10
2022-10-07T09:45:45.455Z,11.80
2022-10-07T09:48:21.307Z,4.95
2022-10-07T09:50:53.759Z,9.32
2022-10-07T09:53:25.630Z,7.97
2022-10-07T09:55:57.503Z,7.30
2022-10-07T09:58:30.652Z,10.52
2022-10-07T10:01:06.159Z,8.82
2022-10-07T10:03:36.671Z,5.40
2022-10-07T10:08:39.416Z,8.30
2022-10-07T10:11:26.096Z,7.78
2022-10-07T10:13:54.336Z,7.55
2022-10-07T10:16:26.774Z,10.73
2022-10-07T10:19:02.315Z,8.95
2022-10-07T10:21:35.979Z,8.35
2022-10-07T10:24:06.426Z,10.98
2022-10-07T10:27:19.738Z,8.27
2022-10-07T10:30:08.301Z,7.53
2022-10-07T10:33:07.313Z,7.20
2022-10-07T10:36:05.344Z,4.78
2022-10-07T10:38:40.153Z,9.52
2022-10-07T10:41:29.271Z,26.55
2022-10-07T10:44:16.672Z,8.95
2022-10-07T10:46:58.611Z,2.85
2022-10-07T10:49:30.657Z,2.80
2022-10-07T10:52:04.359Z,9.50
2022-10-07T10:54:47.515Z,5.95
2022-10-07T10:57:31.834Z,7.47
2022-10-07T11:00:00.113Z,8.15
2022-10-07T11:02:44.965Z,3.55
2022-10-07T11:05:37.116Z,12.77
2022-10-07T11:08:39.872Z,5.43
2022-10-07T11:11:20.164Z,3.70
2022-10-07T11:13:54.521Z,6.60
2022-10-07T11:16:28.083Z,2.45
2022-10-07T11:19:04.227Z,6.97
2022-10-07T11:21:45.545Z,3.10
2022-10-07T11:24:28.776Z,5.93
2022-10-07T11:27:02.354Z,3.05
2022-10-07T11:29:42.878Z,3.58
2022-10-07T11:32:49.475Z,4.78
2022-10-07T11:35:17.980Z,6.38
2022-10-07T11:38:20.110Z,3.88
2022-10-07T11:40:52.090Z,4.53
2022-10-07T11:43:53.341Z,15.98
2022-10-07T11:46:28.129Z,4.75
2022-10-07T11:49:04.929Z,3.70
2022-10-07T11:51:47.006Z,4.15
2022-10-07T11:54:17.425Z,7.65
2022-10-07T11:56:49.468Z,6.30
2022-10-07T11:59:50.321Z,7.65
2022-10-07T12:02:39.913Z,5.43
2022-10-07T12:05:34.355Z,5.20
2022-10-07T12:08:28.385Z,5.65
2022-10-07T12:11:19.702Z,12.52
2022-10-07T12:13:50.839Z,4.82
2022-10-07T12:16:31.575Z,7.00
2022-10-07T12:19:10.536Z,4.35
2022-10-07T12:22:00.268Z,6.05
2022-10-07T12:24:29.438Z,10.73
2022-10-07T12:27:25.702Z,11.38
2022-10-07T12:30:04.542Z,6.28
2022-10-07T12:32:56.733Z,7.68
2022-10-07T12:35:34.909Z,5.68
2022-10-07T12:38:18.561Z,4.15
2022-10-07T12:41:01.641Z,4.70
2022-10-07T12:43:36.818Z,6.72
2022-10-07T12:46:06.833Z,11.32
2022-10-07T12:48:41.154Z,6.38
2022-10-07T12:51:21.272Z,8.00
2022-10-07T12:56:24.746Z,9.70
2022-10-07T12:59:11.821Z,5.35
2022-10-07T13:01:39.992Z,10.25
2022-10-07T13:04:11.544Z,5.85
2022-10-07T13:06:39.665Z,6.00
2022-10-07T13:09:23.830Z,6.93
2022-10-07T13:12:24.209Z,6.90
2022-10-07T13:15:04.005Z,5.82
2022-10-07T13:17:56.403Z,10.52
2022-10-07T13:20:33.394Z,5.75
2022-10-07T13:23:20.899Z,8.02
2022-10-07T13:25:55.693Z,7.53
2022-10-07T13:28:48.310Z,12.52
2022-10-07T13:31:20.494Z,7.20
2022-10-07T13:33:49.909Z,6.93
2022-10-07T13:36:21.666Z,13.13
2022-10-07T13:39:10.158Z,11.13
2022-10-07T13:41:42.618Z,8.52
2022-10-07T13:44:14.622Z,10.55
2022-10-07T13:46:55.914Z,7.57
2022-10-07T13:49:27.378Z,9.63
2022-10-07T13:51:57.721Z,4.45
2022-10-07T13:54:28.441Z,5.15
2022-10-07T13:56:57.572Z,5.07
2022-10-07T13:59:25.843Z,9.95
2022-10-07T14:01:56.575Z,8.88
2022-10-07T14:04:33.607Z,6.43
2022-10-07T14:07:17.480Z,13.57
2022-10-07T14:09:45.629Z,9.88
2022-10-07T14:12:19.283Z,5.93
2022-10-07T14:14:49.530Z,7.57
2022-10-07T14:17:31.836Z,8.80
2022-10-07T14:20:05.516Z,6.82
2022-10-07T14:22:39.194Z,5.65
2022-10-07T14:25:20.526Z,8.55
2022-10-07T14:28:07.734Z,5.70
2022-10-07T14:30:59.246Z,11.00
2022-10-07T14:33:55.089Z,6.40
2022-10-07T14:36:23.660Z,9.77
2022-10-07T14:38:53.125Z,7.07
2022-10-07T14:41:22.999Z,11.40
2022-10-07T14:43:52.099Z,9.07
2022-10-07T14:46:23.309Z,9.10
2022-10-07T14:48:52.502Z,6.25
2022-10-07T14:51:23.528Z,6.93
2022-10-07T14:53:55.257Z,12.48
2022-10-07T14:56:26.990Z,8.23
2022-10-07T14:58:56.353Z,10.85
2022-10-07T15:01:25.223Z,9.65
2022-10-07T15:03:53.822Z,11.70
2022-10-07T15:06:22.064Z,16.13
2022-10-07T15:08:50.250Z,8.65
2022-10-07T15:11:20.669Z,8.05
2022-10-07T15:13:50.151Z,8.40
2022-10-07T15:16:25.715Z,7.88
2022-10-07T15:18:54.589Z,11.20
2022-10-07T15:21:23.565Z,7.72
2022-10-07T15:23:54.752Z,12.05
2022-10-07T15:26:24.744Z,7.97
2022-10-07T15:28:55.270Z,5.35
2022-10-07T15:31:26.128Z,6.13
2022-10-07T15:33:57.315Z,11.30
2022-10-07T15:38:54.529Z,6.57
2022-10-07T15:41:33.745Z,11.23
2022-10-07T15:44:06.223Z,8.77
2022-10-07T15:46:35.397Z,8.80
2022-10-07T15:49:04.603Z,9.45
2022-10-07T15:51:32.854Z,20.13
2022-10-07T15:54:01.249Z,8.70
2022-10-07T15:56:29.534Z,14.77
2022-10-07T15:58:58.802Z,8.23
2022-10-07T16:01:28.448Z,10.30
2022-10-07T16:03:56.525Z,13.82
2022-10-07T16:06:26.598Z,14.55
2022-10-07T16:08:56.425Z,14.48
2022-10-07T16:11:26.021Z,10.10
2022-10-07T16:13:54.737Z,11.25
2022-10-07T16:16:27.736Z,15.43
2022-10-07T16:18:58.418Z,26.52
2022-10-07T16:21:30.678Z,15.90
2022-10-07T16:24:03.975Z,10.55
2022-10-07T16:26:34.574Z,11.70
2022-10-07T16:29:23.106Z,12.77
2022-10-07T16:31:57.989Z,12.55
2022-10-07T16:34:28.035Z,10.95
2022-10-07T16:36:57.887Z,14.10
2022-10-07T16:39:26.559Z,14.73
2022-10-07T16:41:55.598Z,11.23
2022-10-07T16:44:24.872Z,13.02
2022-10-07T16:46:56.899Z,13.05
2022-10-07T16:49:27.721Z,16.65
2022-10-07T16:51:56.598Z,16.60
2022-10-07T16:54:25.371Z,11.63
2022-10-07T16:56:53.647Z,14.77
2022-10-07T16:59:24.320Z,12.77
2022-10-07T17:01:55.593Z,13.55
2022-10-07T17:04:25.399Z,15.27
2022-10-07T17:06:54.249Z,14.50
2022-10-07T17:09:24.903Z,19.90
2022-10-07T17:11:53.299Z,17.50
2022-10-07T17:14:23.078Z,17.67
2022-10-07T17:16:53.595Z,15.13
2022-10-07T17:19:24.455Z,14.13
2022-10-07T17:24:22.986Z,12.25
2022-10-07T17:26:53.075Z,15.02
2022-10-07T17:29:23.389Z,18.58
2022-10-07T17:31:52.102Z,20.58
2022-10-07T17:34:21.797Z,10.30
2022-10-07T17:36:50.843Z,11.93
2022-10-07T17:39:19.740Z,10.30
2022-10-07T17:41:47.978Z,14.32
2022-10-07T17:44:17.203Z,12.00
2022-10-07T17:46:45.566Z,16.85
2022-10-07T17:49:14.023Z,14.10
2022-10-07T17:51:43.131Z,14.25
2022-10-07T17:54:13.871Z,13.70
2022-10-07T17:56:45.774Z,13.77
2022-10-07T17:59:14.528Z,8.75
2022-10-07T18:01:43.521Z,12.55
2022-10-07T18:04:15.165Z,14.85
2022-10-07T18:06:44.220Z,16.40
2022-10-07T18:09:18.797Z,15.73
2022-10-07T18:12:05.520Z,14.60
2022-10-07T18:14:54.144Z,13.90
2022-10-07T18:17:24.734Z,11.98
2022-10-07T18:19:53.420Z,12.77
2022-10-07T18:22:22.081Z,15.18
2022-10-07T18:24:50.200Z,13.75
2022-10-07T18:27:18.358Z,14.73
2022-10-07T18:29:46.799Z,16.67
2022-10-07T18:32:14.868Z,24.77
2022-10-07T18:34:43.061Z,16.27
2022-10-07T18:37:11.758Z,19.98
2022-10-07T18:39:39.939Z,17.50
2022-10-07T18:42:08.341Z,16.80
2022-10-07T18:44:36.517Z,16.45
2022-10-07T18:47:04.704Z,18.80
2022-10-07T18:49:33.201Z,17.52
2022-10-07T18:52:01.401Z,22.10
2022-10-07T18:54:29.520Z,19.00
2022-10-07T18:56:57.909Z,24.17
2022-10-07T18:59:26.105Z,20.20
2022-10-07T19:01:54.346Z,22.65
2022-10-07T19:04:22.861Z,21.38
2022-10-07T19:06:50.934Z,17.00
2022-10-07T19:09:21.412Z,18.50
2022-10-07T19:11:50.597Z,21.15
2022-10-07T19:14:20.191Z,16.55
2022-10-07T19:16:49.616Z,16.80
2022-10-07T19:19:20.588Z,19.70
2022-10-07T19:21:51.770Z,23.73
2022-10-07T19:24:20.501Z,24.90
2022-10-07T19:26:50.230Z,24.30
2022-10-07T19:29:19.029Z,17.38
2022-10-07T19:31:49.111Z,22.80
2022-10-07T19:34:20.933Z,25.35
2022-10-07T19:36:50.389Z,22.40
2022-10-07T19:39:21.061Z,24.58
2022-10-07T19:41:51.257Z,19.42
2022-10-07T19:44:19.491Z,20.92
2022-10-07T19:46:51.369Z,19.88
2022-10-07T19:49:19.525Z,23.73
2022-10-07T19:51:47.630Z,31.48
2022-10-07T19:54:16.296Z,23.52
2022-10-07T19:56:45.420Z,21.02
2022-10-07T19:59:14.738Z,21.38
2022-10-07T20:01:44.541Z,19.48
2022-10-07T20:04:15.165Z,23.65
2022-10-07T20:06:44.454Z,22.25
2022-10-07T20:09:14.971Z,25.85
2022-10-07T20:11:43.698Z,26.60
2022-10-07T20:14:12.078Z,25.65
2022-10-07T20:16:40.469Z,27.00
2022-10-07T20:19:14.423Z,26.15
2022-10-07T20:21:43.074Z,29.20
2022-10-07T20:24:14.644Z,23.58
2022-10-07T20:26:44.272Z,23.42
2022-10-07T20:29:14.015Z,25.25
2022-10-07T20:31:43.404Z,27.98
2022-10-07T20:34:16.068Z,24.27
2022-10-07T20:36:44.599Z,27.15
2022-10-07T20:39:36.691Z,24.38
2022-10-07T20:42:24.420Z,24.70
2022-10-07T20:44:56.320Z,19.77
2022-10-07T20:47:26.398Z,29.80
2022-10-07T20:49:59.910Z,19.90
2022-10-07T20:52:31.120Z,24.65
2022-10-07T20:55:00.284Z,25.77
2022-10-07T20:57:34.026Z,17.63
2022-10-07T21:00:10.438Z,25.25
2022-10-07T21:02:39.724Z,22.25
2022-10-07T21:05:08.410Z,23.15
2022-10-07T21:07:36.912Z,22.17
2022-10-07T21:10:05.451Z,24.25
2022-10-07T21:12:33.982Z,29.25
2022-10-07T21:15:04.016Z,21.13
2022-10-07T21:17:35.520Z,20.48
2022-10-07T21:20:04.545Z,29.48
2022-10-07T21:22:33.041Z,23.35
2022-10-07T21:25:01.417Z,26.30
2022-10-07T21:27:30.332Z,22.48
2022-10-07T21:29:58.534Z,105.90
2022-10-07T21:32:28.241Z,43.90
